Almas, Brazil
Current Conditions -  °F | °C
As of 3:00 PM on Monday 26 Jan 2015 (Local Time) from SBPJ Reporting Station
Scattered Clouds Scattered Clouds  
Wind Chill: 86°   Ceiling: Unl
Heat Index: 89°   Visibility: 6mi
Dew Point: 68°   Wind: 6mph
Humidity: 55%   Direction: 260°W
Pressure: 29.88"   Gusts: NA
Location:  11.55°S, 47.15°W
Report Text: SBPJ 261800Z 26005KT 9999 SCT025 30/20 Q1012
Loading
Personal Weather Stations






























Interactive Weather Map New forecast layout! Learn more

10-Day Weather Forecast

Advertisements
Track Severe Weather on mobile